createdAt,value
2022-09-15T00:00:58.972Z,17.90
2022-09-15T00:03:26.154Z,17.80
2022-09-15T00:05:54.556Z,17.80
2022-09-15T00:08:22.774Z,17.90
2022-09-15T00:10:51.388Z,17.90
2022-09-15T00:13:19.011Z,17.80
2022-09-15T00:15:46.064Z,17.90
2022-09-15T00:18:13.360Z,17.90
2022-09-15T00:20:42.607Z,17.90
2022-09-15T00:23:11.225Z,17.90
2022-09-15T00:25:47.348Z,17.90
2022-09-15T00:28:15.903Z,17.90
2022-09-15T00:31:04.440Z,17.80
2022-09-15T00:33:31.364Z,17.80
2022-09-15T00:36:02.833Z,17.80
2022-09-15T00:38:29.874Z,17.80
2022-09-15T00:40:58.407Z,17.80
2022-09-15T00:43:48.576Z,17.80
2022-09-15T00:46:17.559Z,17.80
2022-09-15T00:48:49.962Z,17.80
2022-09-15T00:51:21.004Z,17.90
2022-09-15T00:53:49.386Z,17.90
2022-09-15T00:56:18.710Z,17.80
2022-09-15T00:59:01.408Z,17.80
2022-09-15T01:01:30.737Z,17.80
2022-09-15T01:03:58.582Z,17.80
2022-09-15T01:06:36.501Z,17.80
2022-09-15T01:09:14.170Z,17.80
2022-09-15T01:11:42.175Z,17.80
2022-09-15T01:14:09.438Z,17.80
2022-09-15T01:16:55.228Z,17.80
2022-09-15T01:19:32.297Z,17.80
2022-09-15T01:22:37.711Z,17.80
2022-09-15T01:25:27.736Z,17.80
2022-09-15T01:28:17.148Z,17.70
2022-09-15T01:31:15.491Z,17.70
2022-09-15T01:33:54.862Z,17.70
2022-09-15T01:36:34.522Z,17.70
2022-09-15T01:39:13.214Z,17.70
2022-09-15T01:41:52.283Z,17.70
2022-09-15T01:44:24.917Z,17.80
2022-09-15T01:46:58.579Z,17.70
2022-09-15T01:49:28.149Z,17.70
2022-09-15T01:51:55.141Z,17.60
2022-09-15T01:54:40.163Z,17.70
2022-09-15T01:57:07.243Z,17.70
2022-09-15T01:59:34.758Z,17.70
2022-09-15T02:02:16.687Z,17.70
2022-09-15T02:05:00.132Z,17.60
2022-09-15T02:07:51.424Z,17.70
2022-09-15T02:10:27.396Z,17.70
2022-09-15T02:13:18.979Z,17.70
2022-09-15T02:15:54.011Z,17.70
2022-09-15T02:18:36.435Z,17.70
2022-09-15T02:21:18.946Z,17.70
2022-09-15T02:23:51.508Z,17.70
2022-09-15T02:26:24.685Z,17.60
2022-09-15T02:28:54.749Z,17.70
2022-09-15T02:31:25.846Z,17.70
2022-09-15T02:34:00.575Z,17.60
2022-09-15T02:36:29.463Z,17.60
2022-09-15T02:39:05.169Z,17.50
2022-09-15T02:41:34.014Z,17.60
2022-09-15T02:44:01.160Z,17.60
2022-09-15T02:46:28.449Z,17.60
2022-09-15T02:48:57.017Z,17.60
2022-09-15T02:51:24.005Z,17.60
2022-09-15T02:53:51.127Z,17.60
2022-09-15T02:56:18.243Z,17.60
2022-09-15T02:58:45.275Z,17.60
2022-09-15T03:01:16.991Z,17.60
2022-09-15T03:03:45.614Z,17.60
2022-09-15T03:06:16.788Z,17.60
2022-09-15T03:08:58.603Z,17.60
2022-09-15T03:11:27.738Z,17.60
2022-09-15T03:13:56.768Z,17.60
2022-09-15T03:16:24.779Z,17.60
2022-09-15T03:18:53.646Z,17.60
2022-09-15T03:21:20.768Z,17.60
2022-09-15T03:23:48.175Z,17.60
2022-09-15T03:26:15.220Z,17.60
2022-09-15T03:28:42.198Z,17.60
2022-09-15T03:31:10.155Z,17.70
2022-09-15T03:33:37.405Z,17.70
2022-09-15T03:36:07.260Z,17.60
2022-09-15T03:38:34.321Z,17.60
2022-09-15T03:41:07.851Z,17.60
2022-09-15T03:43:35.838Z,17.50
2022-09-15T03:46:06.417Z,17.50
2022-09-15T03:48:36.330Z,17.60
2022-09-15T03:51:05.810Z,17.50
2022-09-15T03:53:34.529Z,17.50
2022-09-15T03:56:22.908Z,17.50
2022-09-15T03:58:50.332Z,17.50
2022-09-15T04:01:19.072Z,17.40
2022-09-15T04:03:50.847Z,17.50
2022-09-15T04:06:20.971Z,17.40
2022-09-15T04:08:49.153Z,17.40
2022-09-15T04:11:17.940Z,17.40
2022-09-15T04:13:45.577Z,17.40
2022-09-15T04:16:15.598Z,17.40
2022-09-15T04:18:42.998Z,17.40
2022-09-15T04:21:17.101Z,17.40
2022-09-15T04:23:44.591Z,17.40
2022-09-15T04:26:20.854Z,17.40
2022-09-15T04:28:47.856Z,17.40
2022-09-15T04:31:16.515Z,17.40
2022-09-15T04:33:44.691Z,17.40
2022-09-15T04:36:17.012Z,17.40
2022-09-15T04:38:44.814Z,17.30
2022-09-15T04:41:12.316Z,17.30
2022-09-15T04:43:39.303Z,17.40
2022-09-15T04:46:06.758Z,17.30
2022-09-15T04:48:34.231Z,17.30
2022-09-15T04:51:03.312Z,17.30
2022-09-15T04:53:30.460Z,17.30
2022-09-15T04:56:07.861Z,17.20
2022-09-15T04:58:39.962Z,17.20
2022-09-15T05:01:15.336Z,17.30
2022-09-15T05:03:42.957Z,17.30
2022-09-15T05:06:12.659Z,17.20
2022-09-15T05:08:39.842Z,17.30
2022-09-15T05:11:09.139Z,17.20
2022-09-15T05:13:37.147Z,17.20
2022-09-15T05:16:06.218Z,17.20
2022-09-15T05:18:33.265Z,17.30
2022-09-15T05:21:01.695Z,17.20
2022-09-15T05:23:29.184Z,17.20
2022-09-15T05:25:58.152Z,17.20
2022-09-15T05:28:25.599Z,17.20
2022-09-15T05:30:56.197Z,17.20
2022-09-15T05:33:24.130Z,17.20
2022-09-15T05:35:58.550Z,17.20
2022-09-15T05:38:28.398Z,17.20
2022-09-15T05:41:01.370Z,17.20
2022-09-15T05:43:31.763Z,17.20
2022-09-15T05:45:58.896Z,17.20
2022-09-15T05:48:26.155Z,17.20
2022-09-15T05:50:55.104Z,17.20
2022-09-15T05:53:22.590Z,17.20
2022-09-15T05:55:54.129Z,17.20
2022-09-15T05:58:21.068Z,17.20
2022-09-15T06:00:48.198Z,17.20
2022-09-15T06:03:16.853Z,17.20
2022-09-15T06:05:43.896Z,17.10
2022-09-15T06:08:11.359Z,17.20
2022-09-15T06:10:38.647Z,17.10
2022-09-15T06:13:08.764Z,17.10
2022-09-15T06:15:43.126Z,17.20
2022-09-15T06:18:10.177Z,17.10
2022-09-15T06:20:37.293Z,17.10
2022-09-15T06:23:04.501Z,17.10
2022-09-15T06:25:31.568Z,17.10
2022-09-15T06:27:58.587Z,17.10
2022-09-15T06:30:25.748Z,17.10
2022-09-15T06:32:52.741Z,17.10
2022-09-15T06:35:20.103Z,17.10
2022-09-15T06:37:47.709Z,17.10
2022-09-15T06:40:17.826Z,17.10
2022-09-15T06:42:48.154Z,17.10
2022-09-15T06:45:24.905Z,17.10
2022-09-15T06:48:07.595Z,17.10
2022-09-15T06:50:42.083Z,17.10
2022-09-15T06:53:14.461Z,16.90
2022-09-15T06:55:47.300Z,17.10
2022-09-15T06:58:14.367Z,17.10
2022-09-15T07:00:41.915Z,17.10
2022-09-15T07:03:09.226Z,17.10
2022-09-15T07:05:38.935Z,17.10
2022-09-15T07:08:07.260Z,17.10
2022-09-15T07:10:34.407Z,17.00
2022-09-15T07:13:01.464Z,17.00
2022-09-15T07:15:28.429Z,17.10
2022-09-15T07:17:55.604Z,17.10
2022-09-15T07:20:22.975Z,17.00
2022-09-15T07:22:50.008Z,17.10
2022-09-15T07:25:17.155Z,17.00
2022-09-15T07:27:44.499Z,17.00
2022-09-15T07:33:09.014Z,17.00
2022-09-15T07:35:42.514Z,17.00
2022-09-15T07:38:10.566Z,17.10
2022-09-15T07:40:38.572Z,17.00
2022-09-15T07:43:13.348Z,17.00
2022-09-15T07:45:40.982Z,16.90
2022-09-15T07:48:17.867Z,17.00
2022-09-15T07:50:47.002Z,17.00
2022-09-15T07:53:14.492Z,17.00
2022-09-15T07:55:41.613Z,17.00
2022-09-15T07:58:10.868Z,17.00
2022-09-15T08:00:40.406Z,16.90
2022-09-15T08:03:12.112Z,17.00
2022-09-15T08:05:45.434Z,17.00
2022-09-15T08:08:15.337Z,16.90
2022-09-15T08:10:42.980Z,16.90
2022-09-15T08:13:10.188Z,16.90
2022-09-15T08:15:40.638Z,16.90
2022-09-15T08:18:07.857Z,16.90
2022-09-15T08:20:40.451Z,17.00
2022-09-15T08:23:11.512Z,17.00
2022-09-15T08:25:46.013Z,17.00
2022-09-15T08:28:13.331Z,17.00
2022-09-15T08:30:40.661Z,17.00
2022-09-15T08:33:07.953Z,16.90
2022-09-15T08:35:37.065Z,16.90
2022-09-15T08:38:04.120Z,16.90
2022-09-15T08:40:35.776Z,16.90
2022-09-15T08:43:13.146Z,16.90
2022-09-15T08:46:04.235Z,16.90
2022-09-15T08:48:45.471Z,17.00
2022-09-15T08:51:21.707Z,17.00
2022-09-15T08:54:07.791Z,16.90
2022-09-15T08:56:36.289Z,16.80
2022-09-15T08:59:03.718Z,17.00
2022-09-15T09:02:00.322Z,16.90
2022-09-15T09:04:34.413Z,16.90
2022-09-15T09:07:33.544Z,16.90
2022-09-15T09:10:19.516Z,16.90
2022-09-15T09:13:12.150Z,16.90
2022-09-15T09:15:45.294Z,16.90
2022-09-15T09:18:33.880Z,16.90
2022-09-15T09:21:08.126Z,16.90
2022-09-15T09:24:03.482Z,16.90
2022-09-15T09:26:33.470Z,16.90
2022-09-15T09:29:06.770Z,16.90
2022-09-15T09:31:45.925Z,16.90
2022-09-15T09:34:27.682Z,16.90
2022-09-15T09:36:58.517Z,17.00
2022-09-15T09:39:27.969Z,16.90
2022-09-15T09:41:58.607Z,16.90
2022-09-15T09:44:33.022Z,16.90
2022-09-15T09:47:07.411Z,16.90
2022-09-15T09:49:38.390Z,16.90
2022-09-15T09:52:08.818Z,16.90
2022-09-15T09:54:54.712Z,16.90
2022-09-15T09:57:31.633Z,16.90
2022-09-15T10:00:36.125Z,16.90
2022-09-15T10:03:17.417Z,16.90
2022-09-15T10:05:46.183Z,16.90
2022-09-15T10:08:21.139Z,16.90
2022-09-15T10:11:00.188Z,16.90
2022-09-15T10:13:34.828Z,16.90
2022-09-15T10:16:07.962Z,16.90
2022-09-15T10:18:39.147Z,16.90
2022-09-15T10:21:13.848Z,16.90
2022-09-15T10:23:43.652Z,16.90
2022-09-15T10:26:16.875Z,16.90
2022-09-15T10:28:45.047Z,17.00
2022-09-15T10:31:24.384Z,17.00
2022-09-15T10:33:51.713Z,17.00
2022-09-15T10:36:34.864Z,17.00
2022-09-15T10:39:18.066Z,17.10
2022-09-15T10:42:02.341Z,17.00
2022-09-15T10:44:44.307Z,17.10
2022-09-15T10:47:28.719Z,17.10
2022-09-15T10:50:31.894Z,17.10
2022-09-15T10:53:33.666Z,17.10
2022-09-15T10:56:13.594Z,17.10
2022-09-15T10:58:56.831Z,17.10
2022-09-15T11:01:29.996Z,17.10
2022-09-15T11:04:11.523Z,17.00
2022-09-15T11:07:06.107Z,17.00
2022-09-15T11:09:38.998Z,17.10
2022-09-15T11:12:33.259Z,17.10
2022-09-15T11:15:12.122Z,17.10
2022-09-15T11:17:54.720Z,17.10
2022-09-15T11:20:49.623Z,17.10
2022-09-15T11:23:18.957Z,17.10
2022-09-15T11:25:53.859Z,17.10
2022-09-15T11:28:35.449Z,17.10
2022-09-15T11:31:19.388Z,17.10
2022-09-15T11:35:02.096Z,17.10
2022-09-15T11:37:25.245Z,17.10
2022-09-15T11:39:58.801Z,17.10
2022-09-15T11:43:14.153Z,16.90
2022-09-15T11:46:02.647Z,16.80
2022-09-15T11:48:41.912Z,16.70
2022-09-15T11:51:23.112Z,16.60
2022-09-15T11:54:06.241Z,16.60
2022-09-15T11:56:43.454Z,16.50
2022-09-15T11:59:19.557Z,16.50
2022-09-15T12:01:59.416Z,16.50
2022-09-15T12:04:33.432Z,16.50
2022-09-15T12:07:14.893Z,16.40
2022-09-15T12:09:45.711Z,16.30
2022-09-15T12:12:16.258Z,16.40
2022-09-15T12:14:45.580Z,16.40
2022-09-15T12:17:35.782Z,16.30
2022-09-15T12:20:15.746Z,16.40
2022-09-15T12:23:18.410Z,16.40
2022-09-15T12:26:08.563Z,16.40
2022-09-15T12:28:40.875Z,16.40
2022-09-15T12:31:26.473Z,16.50
2022-09-15T12:33:57.209Z,16.40
2022-09-15T12:36:42.935Z,16.50
2022-09-15T12:39:21.493Z,16.50
2022-09-15T12:42:03.795Z,16.40
2022-09-15T12:44:50.916Z,16.30
2022-09-15T12:47:31.954Z,16.20
2022-09-15T12:50:08.617Z,16.20
2022-09-15T12:52:45.688Z,16.10
2022-09-15T12:55:37.364Z,16.10
2022-09-15T12:58:10.389Z,16.00
2022-09-15T13:00:55.082Z,16.10
2022-09-15T13:03:38.197Z,16.10
2022-09-15T13:06:14.822Z,16.10
2022-09-15T13:08:47.587Z,16.10
2022-09-15T13:11:25.601Z,16.10
2022-09-15T13:14:06.896Z,16.20
2022-09-15T13:17:00.736Z,16.10
2022-09-15T13:19:35.772Z,16.10
2022-09-15T13:22:11.608Z,16.00
2022-09-15T13:25:15.704Z,15.90
2022-09-15T13:27:53.266Z,15.90
2022-09-15T13:30:29.154Z,15.90
2022-09-15T13:33:23.954Z,15.90
2022-09-15T13:36:25.059Z,16.00
2022-09-15T13:39:19.441Z,16.00
2022-09-15T13:42:34.439Z,16.00
2022-09-15T13:45:52.273Z,16.00
2022-09-15T13:48:45.942Z,16.00
2022-09-15T13:51:25.093Z,16.00
2022-09-15T13:54:01.397Z,16.00
2022-09-15T13:56:31.248Z,16.00
2022-09-15T14:00:25.143Z,15.90
2022-09-15T14:02:56.217Z,15.90
2022-09-15T14:05:26.340Z,15.90
2022-09-15T14:08:01.258Z,15.90
2022-09-15T14:10:32.087Z,16.00
2022-09-15T14:13:00.718Z,15.90
2022-09-15T14:15:28.808Z,15.90
2022-09-15T14:17:56.249Z,15.90
2022-09-15T14:20:31.211Z,15.90
2022-09-15T14:22:59.709Z,15.90
2022-09-15T14:25:29.319Z,15.90
2022-09-15T14:27:56.598Z,15.90
2022-09-15T14:30:27.807Z,15.90
2022-09-15T14:33:00.694Z,15.90
2022-09-15T14:35:35.359Z,15.90
2022-09-15T14:38:02.170Z,15.90
2022-09-15T14:40:31.971Z,15.90
2022-09-15T14:42:58.893Z,15.90
2022-09-15T14:48:30.052Z,15.90
2022-09-15T14:51:01.994Z,15.90
2022-09-15T14:53:32.439Z,15.90
2022-09-15T14:56:08.298Z,15.90
2022-09-15T14:58:36.942Z,15.90
2022-09-15T15:01:15.608Z,15.90
2022-09-15T15:03:46.430Z,15.90
2022-09-15T15:06:33.811Z,15.80
2022-09-15T15:09:06.389Z,15.90
2022-09-15T15:11:34.945Z,15.90
2022-09-15T15:14:05.781Z,15.80
2022-09-15T15:16:32.861Z,15.80
2022-09-15T15:18:59.819Z,15.80
2022-09-15T15:21:40.089Z,15.80
2022-09-15T15:24:13.026Z,15.80
2022-09-15T15:26:42.256Z,15.80
2022-09-15T15:29:37.470Z,15.90
2022-09-15T15:32:06.357Z,15.90
2022-09-15T15:34:33.809Z,15.90
2022-09-15T15:37:05.503Z,16.00
2022-09-15T15:39:32.539Z,16.00
2022-09-15T15:42:05.617Z,16.00
2022-09-15T15:44:32.949Z,16.10
2022-09-15T15:47:24.144Z,16.10
2022-09-15T15:50:12.172Z,16.10
2022-09-15T15:52:41.255Z,16.00
2022-09-15T15:55:12.065Z,15.90
2022-09-15T15:57:39.210Z,15.90
2022-09-15T16:00:35.982Z,15.90
2022-09-15T16:03:03.199Z,15.90
2022-09-15T16:05:30.637Z,15.90
2022-09-15T16:08:02.931Z,15.90
2022-09-15T16:10:34.353Z,15.90
2022-09-15T16:13:01.300Z,16.00
2022-09-15T16:15:28.310Z,15.90
2022-09-15T16:17:55.138Z,15.90
2022-09-15T16:20:24.375Z,16.00
2022-09-15T16:22:51.900Z,15.90
2022-09-15T16:25:27.595Z,15.90
2022-09-15T16:27:54.387Z,15.90
2022-09-15T16:30:21.213Z,15.90
2022-09-15T16:32:48.054Z,15.90
2022-09-15T16:35:24.762Z,15.90
2022-09-15T16:37:51.572Z,15.90
2022-09-15T16:40:18.515Z,15.90
2022-09-15T16:42:46.450Z,15.90
2022-09-15T16:45:35.310Z,15.80
2022-09-15T16:48:05.063Z,15.80
2022-09-15T16:50:31.937Z,15.80
2022-09-15T16:52:59.093Z,15.80
2022-09-15T16:55:35.983Z,15.90
2022-09-15T16:58:04.998Z,15.90
2022-09-15T17:00:35.419Z,15.90
2022-09-15T17:03:03.589Z,15.90
2022-09-15T17:05:43.079Z,15.90
2022-09-15T17:08:13.324Z,15.80
2022-09-15T17:10:40.895Z,15.80
2022-09-15T17:13:08.228Z,15.80
2022-09-15T17:15:36.475Z,15.70
2022-09-15T17:18:03.474Z,15.70
2022-09-15T17:20:30.339Z,15.80
2022-09-15T17:22:57.871Z,15.70
2022-09-15T17:25:42.511Z,15.70
2022-09-15T17:28:09.340Z,15.70
2022-09-15T17:30:36.161Z,15.70
2022-09-15T17:33:10.442Z,15.70
2022-09-15T17:35:37.583Z,15.60
2022-09-15T17:38:05.983Z,15.60
2022-09-15T17:40:33.869Z,15.50
2022-09-15T17:43:01.255Z,15.60
2022-09-15T17:45:35.457Z,15.60
2022-09-15T17:48:04.024Z,15.60
2022-09-15T17:50:33.076Z,15.60
2022-09-15T17:53:00.321Z,15.60
2022-09-15T17:55:30.972Z,15.50
2022-09-15T17:57:59.921Z,15.50
2022-09-15T18:00:30.447Z,15.40
2022-09-15T18:03:00.115Z,15.30
2022-09-15T18:05:34.987Z,15.40
2022-09-15T18:08:04.434Z,15.40
2022-09-15T18:10:33.803Z,15.30
2022-09-15T18:13:01.597Z,15.30
2022-09-15T18:15:31.244Z,15.30
2022-09-15T18:18:02.725Z,15.30
2022-09-15T18:20:32.692Z,15.30
2022-09-15T18:23:00.126Z,15.30
2022-09-15T18:25:30.936Z,15.30
2022-09-15T18:27:58.726Z,15.30
2022-09-15T18:30:31.461Z,15.30
2022-09-15T18:32:59.497Z,15.30
2022-09-15T18:35:26.661Z,15.30
2022-09-15T18:37:58.461Z,15.20
2022-09-15T18:40:26.407Z,15.20
2022-09-15T18:42:54.169Z,15.20
2022-09-15T18:45:21.231Z,15.20
2022-09-15T18:47:50.016Z,15.20
2022-09-15T18:50:18.625Z,15.20
2022-09-15T18:52:45.423Z,15.20
2022-09-15T18:55:15.707Z,15.20
2022-09-15T18:57:43.079Z,15.20
2022-09-15T19:00:16.809Z,15.10
2022-09-15T19:02:43.970Z,15.20
2022-09-15T19:05:11.949Z,15.20
2022-09-15T19:07:39.349Z,15.10
2022-09-15T19:10:07.924Z,15.10
2022-09-15T19:12:38.421Z,15.20
2022-09-15T19:15:10.747Z,15.10
2022-09-15T19:17:39.439Z,15.10
2022-09-15T19:20:08.410Z,15.10
2022-09-15T19:22:36.251Z,15.00
2022-09-15T19:25:04.486Z,15.00
2022-09-15T19:27:31.510Z,15.00
2022-09-15T19:29:58.575Z,14.90
2022-09-15T19:32:25.529Z,15.00
2022-09-15T19:34:52.818Z,15.00
2022-09-15T19:37:21.567Z,15.00
2022-09-15T19:39:49.274Z,15.00
2022-09-15T19:42:17.308Z,14.90
2022-09-15T19:44:44.739Z,14.80
2022-09-15T19:47:11.977Z,14.70
2022-09-15T19:49:38.856Z,14.80
2022-09-15T19:52:06.513Z,14.60
2022-09-15T19:54:34.634Z,14.70
2022-09-15T19:57:02.257Z,14.80
2022-09-15T19:59:31.520Z,14.60
2022-09-15T20:01:59.903Z,14.60
2022-09-15T20:04:28.117Z,14.60
2022-09-15T20:06:55.103Z,14.50
2022-09-15T20:09:22.329Z,14.50
2022-09-15T20:11:49.235Z,14.50
2022-09-15T20:14:16.419Z,14.50
2022-09-15T20:16:43.413Z,14.40
2022-09-15T20:19:10.421Z,14.40
2022-09-15T20:21:49.665Z,14.40
2022-09-15T20:24:18.292Z,14.40
2022-09-15T20:26:45.220Z,14.30
2022-09-15T20:29:13.188Z,14.30
2022-09-15T20:31:40.576Z,14.30
2022-09-15T20:34:07.466Z,14.40
2022-09-15T20:36:36.576Z,14.20
2022-09-15T20:39:06.063Z,14.20
2022-09-15T20:41:32.985Z,14.20
2022-09-15T20:44:00.415Z,14.20
2022-09-15T20:46:29.397Z,14.20
2022-09-15T20:48:56.327Z,14.10
2022-09-15T20:51:25.904Z,14.10
2022-09-15T20:53:55.114Z,14.10
2022-09-15T20:56:24.993Z,14.10
2022-09-15T20:58:53.262Z,14.10
2022-09-15T21:01:29.211Z,14.00
2022-09-15T21:03:56.228Z,14.00
2022-09-15T21:06:25.467Z,14.10
2022-09-15T21:08:53.405Z,14.00
2022-09-15T21:11:21.234Z,14.00
2022-09-15T21:13:49.330Z,14.00
2022-09-15T21:16:22.478Z,13.90
2022-09-15T21:18:50.847Z,13.90
2022-09-15T21:21:22.179Z,13.90
2022-09-15T21:23:54.769Z,14.00
2022-09-15T21:26:24.414Z,13.80
2022-09-15T21:28:51.777Z,13.80
2022-09-15T21:31:21.067Z,13.70
2022-09-15T21:33:48.923Z,13.80
2022-09-15T21:36:22.223Z,13.70
2022-09-15T21:38:51.138Z,13.80
2022-09-15T21:41:21.504Z,13.70
2022-09-15T21:43:49.775Z,13.70
2022-09-15T21:46:18.781Z,13.70
2022-09-15T21:48:47.366Z,13.70
2022-09-15T21:51:23.507Z,13.60
2022-09-15T21:53:56.175Z,13.70
2022-09-15T21:56:24.779Z,13.60
2022-09-15T21:58:51.990Z,13.60
2022-09-15T22:01:21.576Z,13.60
2022-09-15T22:04:03.852Z,13.50
2022-09-15T22:06:33.331Z,13.50
2022-09-15T22:09:09.324Z,13.60
2022-09-15T22:11:36.914Z,13.50
2022-09-15T22:14:08.195Z,13.50
2022-09-15T22:16:37.139Z,13.50
2022-09-15T22:19:04.573Z,13.50
2022-09-15T22:21:32.585Z,13.50
2022-09-15T22:23:59.677Z,13.50
2022-09-15T22:26:29.256Z,13.50
2022-09-15T22:28:56.772Z,13.50
2022-09-15T22:31:24.662Z,13.40
2022-09-15T22:33:52.370Z,13.40
2022-09-15T22:36:25.251Z,13.50
2022-09-15T22:38:56.130Z,13.50
2022-09-15T22:41:25.895Z,13.50
2022-09-15T22:43:52.861Z,13.40
2022-09-15T22:46:19.999Z,13.30
2022-09-15T22:48:47.060Z,13.40
2022-09-15T22:51:14.867Z,13.40
2022-09-15T22:53:42.410Z,13.40
2022-09-15T22:56:19.790Z,13.60
2022-09-15T22:58:48.545Z,13.30
2022-09-15T23:01:21.204Z,13.30
2022-09-15T23:03:52.623Z,13.40
2022-09-15T23:06:20.673Z,13.20
2022-09-15T23:08:54.814Z,13.30
2022-09-15T23:11:22.526Z,13.30
2022-09-15T23:13:49.883Z,13.20
2022-09-15T23:16:24.339Z,13.40
2022-09-15T23:18:52.106Z,13.30
2022-09-15T23:21:19.478Z,13.30
2022-09-15T23:23:47.682Z,13.30
2022-09-15T23:26:16.832Z,13.30
2022-09-15T23:28:43.759Z,13.40
2022-09-15T23:31:12.225Z,13.30
2022-09-15T23:33:39.333Z,13.30
2022-09-15T23:36:08.566Z,13.30
2022-09-15T23:38:40.412Z,13.40
2022-09-15T23:41:08.237Z,13.40
2022-09-15T23:43:35.424Z,13.50
2022-09-15T23:46:02.832Z,13.40
2022-09-15T23:48:31.734Z,13.20
2022-09-15T23:50:58.780Z,13.30
2022-09-15T23:53:25.710Z,13.40
2022-09-15T23:55:52.782Z,13.40
2022-09-15T23:58:19.719Z,13.30
